createdAt,value
2019-03-29T00:01:50.322Z,52.17
2019-03-29T00:04:21.855Z,45.13
2019-03-29T00:06:53.364Z,46.93
2019-03-29T00:09:23.924Z,49.73
2019-03-29T00:11:54.738Z,48.17
2019-03-29T00:14:26.191Z,46.73
2019-03-29T00:16:56.793Z,47.27
2019-03-29T00:19:27.898Z,44.80
2019-03-29T00:22:00.104Z,51.88
2019-03-29T00:24:30.905Z,55.97
2019-03-29T00:27:01.644Z,59.57
2019-03-29T00:29:32.591Z,60.63
2019-03-29T00:32:03.193Z,65.30
2019-03-29T00:34:46.264Z,58.03
2019-03-29T00:37:17.315Z,63.70
2019-03-29T00:39:48.690Z,54.83
2019-03-29T00:42:19.244Z,56.70
2019-03-29T00:44:50.484Z,55.67
2019-03-29T00:47:21.110Z,62.47
2019-03-29T00:49:51.605Z,68.60
2019-03-29T00:52:22.094Z,63.70
2019-03-29T00:54:54.158Z,57.13
2019-03-29T00:57:25.632Z,57.87
2019-03-29T00:59:56.174Z,55.08
2019-03-29T01:02:26.851Z,50.70
2019-03-29T01:04:59.189Z,48.87
2019-03-29T01:07:30.215Z,49.05
2019-03-29T01:10:01.456Z,51.17
2019-03-29T01:12:33.790Z,50.37
2019-03-29T01:15:05.205Z,48.07
2019-03-29T01:17:35.910Z,49.67
2019-03-29T01:20:07.704Z,47.60
2019-03-29T01:22:38.206Z,49.43
2019-03-29T01:25:10.433Z,50.10
2019-03-29T01:27:40.968Z,46.13
2019-03-29T01:30:12.580Z,43.60
2019-03-29T01:32:43.166Z,41.13
2019-03-29T01:35:13.945Z,39.20
2019-03-29T01:37:45.377Z,42.80
2019-03-29T01:40:16.986Z,42.23
2019-03-29T01:42:47.669Z,44.10
2019-03-29T01:45:18.432Z,40.10
2019-03-29T01:47:49.027Z,43.00
2019-03-29T01:50:20.351Z,42.27
2019-03-29T01:52:51.025Z,42.07
2019-03-29T01:55:22.384Z,52.63
2019-03-29T01:57:55.187Z,48.30
2019-03-29T02:00:33.324Z,48.57
2019-03-29T02:03:04.083Z,46.33
2019-03-29T02:05:34.831Z,47.90
2019-03-29T02:08:05.590Z,44.00
2019-03-29T02:10:36.207Z,53.73
2019-03-29T02:13:06.946Z,43.43
2019-03-29T02:15:37.927Z,43.50
2019-03-29T02:18:08.795Z,47.62
2019-03-29T02:20:40.254Z,44.43
2019-03-29T02:23:10.801Z,49.05
2019-03-29T02:25:42.451Z,43.80
2019-03-29T02:28:13.660Z,47.37
2019-03-29T02:30:44.392Z,50.43
2019-03-29T02:33:15.007Z,46.37
2019-03-29T02:35:45.499Z,43.13
2019-03-29T02:38:16.137Z,44.57
2019-03-29T02:40:46.808Z,45.35
2019-03-29T02:43:17.374Z,42.27
2019-03-29T02:45:48.170Z,39.60
2019-03-29T02:48:18.691Z,38.97
2019-03-29T02:50:49.287Z,37.53
2019-03-29T02:53:19.828Z,40.10
2019-03-29T02:55:51.086Z,42.47
2019-03-29T02:58:21.842Z,41.25
2019-03-29T03:00:52.832Z,43.37
2019-03-29T03:03:23.395Z,47.03
2019-03-29T03:05:54.068Z,39.47
2019-03-29T03:08:24.709Z,45.70
2019-03-29T03:10:55.360Z,38.70
2019-03-29T03:13:26.087Z,40.95
2019-03-29T03:15:56.629Z,37.23
2019-03-29T03:18:27.149Z,43.07
2019-03-29T03:20:58.804Z,41.75
2019-03-29T03:23:29.475Z,47.13
2019-03-29T03:26:00.068Z,45.43
2019-03-29T03:28:30.770Z,39.83
2019-03-29T03:31:01.424Z,50.43
2019-03-29T03:33:32.214Z,52.98
2019-03-29T03:36:02.970Z,47.27
2019-03-29T03:38:33.679Z,41.50
2019-03-29T03:41:04.405Z,48.23
2019-03-29T03:43:35.270Z,41.73
2019-03-29T03:46:05.947Z,40.20
2019-03-29T03:48:36.406Z,48.33
2019-03-29T03:51:07.237Z,44.50
2019-03-29T03:53:38.163Z,42.40
2019-03-29T03:56:10.109Z,51.20
2019-03-29T03:58:41.707Z,45.53
2019-03-29T04:01:12.422Z,41.35
2019-03-29T04:03:43.087Z,50.10
2019-03-29T04:06:13.709Z,45.08
2019-03-29T04:08:44.473Z,44.10
2019-03-29T04:11:15.264Z,48.53
2019-03-29T04:13:46.072Z,44.33
2019-03-29T04:16:16.677Z,48.80
2019-03-29T04:18:47.289Z,48.05
2019-03-29T04:21:17.948Z,49.53
2019-03-29T04:23:48.661Z,51.73
2019-03-29T04:26:20.428Z,51.27
2019-03-29T04:29:03.954Z,45.45
2019-03-29T04:31:25.328Z,47.33
2019-03-29T04:33:56.035Z,46.35
2019-03-29T04:36:26.556Z,47.30
2019-03-29T04:38:57.246Z,48.55
2019-03-29T04:41:27.787Z,41.50
2019-03-29T04:43:59.547Z,48.85
2019-03-29T04:46:30.167Z,56.83
2019-03-29T04:49:00.874Z,51.27
2019-03-29T04:51:31.720Z,44.90
2019-03-29T04:54:02.291Z,49.67
2019-03-29T04:56:33.444Z,49.83
2019-03-29T04:59:04.243Z,50.40
2019-03-29T05:01:34.830Z,51.23
2019-03-29T05:04:05.543Z,55.88
2019-03-29T05:06:36.414Z,47.43
2019-03-29T05:09:08.047Z,49.63
2019-03-29T05:11:38.599Z,53.87
2019-03-29T05:14:10.287Z,55.92
2019-03-29T05:16:40.808Z,53.20
2019-03-29T05:19:11.401Z,46.93
2019-03-29T05:21:41.998Z,49.23
2019-03-29T05:24:12.694Z,48.02
2019-03-29T05:26:43.481Z,57.05
2019-03-29T05:29:13.960Z,51.75
2019-03-29T05:31:44.520Z,47.40
2019-03-29T05:34:16.259Z,51.77
2019-03-29T05:36:47.939Z,54.27
2019-03-29T05:39:18.479Z,49.93
2019-03-29T05:41:49.138Z,50.60
2019-03-29T05:44:19.820Z,57.20
2019-03-29T05:46:50.665Z,48.17
2019-03-29T05:49:21.376Z,53.33
2019-03-29T05:51:52.540Z,49.38
2019-03-29T05:54:23.308Z,50.48
2019-03-29T05:56:54.501Z,48.13
2019-03-29T05:59:25.467Z,53.00
2019-03-29T06:01:56.445Z,51.13
2019-03-29T06:04:27.944Z,60.52
2019-03-29T06:06:58.791Z,49.25
2019-03-29T06:09:29.368Z,43.33
2019-03-29T06:12:00.178Z,47.93
2019-03-29T06:14:30.792Z,44.33
2019-03-29T06:17:02.159Z,46.23
2019-03-29T06:19:33.323Z,42.98
2019-03-29T06:22:03.958Z,49.73
2019-03-29T06:24:34.480Z,48.08
2019-03-29T06:27:05.226Z,44.58
2019-03-29T06:29:35.855Z,41.73
2019-03-29T06:32:06.559Z,43.10
2019-03-29T06:34:37.636Z,36.95
2019-03-29T06:37:09.238Z,41.80
2019-03-29T06:39:40.516Z,48.20
2019-03-29T06:42:11.582Z,41.15
2019-03-29T06:44:44.326Z,39.70
2019-03-29T06:47:14.502Z,35.88
2019-03-29T06:49:45.308Z,39.92
2019-03-29T06:52:17.532Z,43.63
2019-03-29T06:54:48.161Z,39.20
2019-03-29T06:57:18.810Z,40.85
2019-03-29T06:59:49.482Z,35.50
2019-03-29T07:02:20.241Z,44.10
2019-03-29T07:04:50.775Z,37.80
2019-03-29T07:07:21.281Z,33.98
2019-03-29T07:09:51.830Z,35.52
2019-03-29T07:12:22.305Z,29.18
2019-03-29T07:15:05.355Z,31.50
2019-03-29T07:17:36.128Z,27.93
2019-03-29T07:20:08.062Z,24.43
2019-03-29T07:22:38.831Z,30.15
2019-03-29T07:25:10.555Z,25.10
2019-03-29T07:27:45.848Z,23.47
2019-03-29T07:30:16.010Z,33.00
2019-03-29T07:32:46.615Z,26.55
2019-03-29T07:35:17.329Z,23.55
2019-03-29T07:37:48.047Z,25.48
2019-03-29T07:40:19.722Z,26.57
2019-03-29T07:42:50.527Z,32.90
2019-03-29T07:45:21.254Z,27.93
2019-03-29T07:47:51.918Z,29.07
2019-03-29T07:50:22.642Z,29.37
2019-03-29T07:52:53.375Z,28.25
2019-03-29T07:55:24.105Z,26.80
2019-03-29T07:57:54.671Z,33.67
2019-03-29T08:00:36.745Z,30.25
2019-03-29T08:03:07.495Z,29.55
2019-03-29T08:05:38.125Z,27.37
2019-03-29T08:08:22.857Z,21.00
2019-03-29T08:10:41.165Z,24.52
2019-03-29T08:13:11.809Z,24.15
2019-03-29T08:16:01.487Z,23.62
2019-03-29T08:18:32.426Z,17.57
2019-03-29T08:21:03.087Z,27.17
2019-03-29T08:23:33.741Z,20.77
2019-03-29T08:26:04.394Z,25.57
2019-03-29T08:28:35.071Z,17.12
2019-03-29T08:31:07.226Z,19.92
2019-03-29T08:33:37.967Z,26.97
2019-03-29T08:36:08.566Z,25.37
2019-03-29T08:38:51.896Z,18.45
2019-03-29T08:41:22.590Z,21.85
2019-03-29T08:43:53.430Z,18.77
2019-03-29T08:46:27.146Z,16.00
2019-03-29T08:48:57.853Z,21.00
2019-03-29T08:51:30.148Z,29.23
2019-03-29T08:54:01.252Z,28.38
2019-03-29T08:56:31.993Z,19.77
2019-03-29T08:59:02.767Z,15.85
2019-03-29T09:01:33.568Z,21.20
2019-03-29T09:04:05.920Z,24.80
2019-03-29T09:06:36.647Z,18.60
2019-03-29T09:09:08.198Z,25.70
2019-03-29T09:11:39.182Z,21.27
2019-03-29T09:14:13.061Z,18.25
2019-03-29T09:16:43.710Z,15.48
2019-03-29T09:19:14.219Z,22.22
2019-03-29T09:21:44.910Z,13.20
2019-03-29T09:24:21.905Z,21.65
2019-03-29T09:26:48.307Z,22.15
2019-03-29T09:29:18.925Z,17.82
2019-03-29T09:31:49.707Z,17.07
2019-03-29T09:34:20.366Z,14.55
2019-03-29T09:36:50.936Z,12.80
2019-03-29T09:39:21.961Z,14.28
2019-03-29T09:41:53.801Z,18.75
2019-03-29T09:44:25.558Z,17.57
2019-03-29T09:46:56.245Z,13.95
2019-03-29T09:49:26.776Z,12.70
2019-03-29T09:51:57.525Z,16.60
2019-03-29T09:54:28.107Z,16.05
2019-03-29T09:56:58.864Z,18.17
2019-03-29T09:59:29.490Z,12.75
2019-03-29T10:02:01.370Z,13.50
2019-03-29T10:04:32.295Z,16.87
2019-03-29T10:07:03.325Z,11.03
2019-03-29T10:09:34.265Z,23.55
2019-03-29T10:12:05.098Z,10.98
2019-03-29T10:14:37.860Z,13.48
2019-03-29T10:17:08.771Z,12.70
2019-03-29T10:19:39.612Z,13.13
2019-03-29T10:22:10.522Z,17.55
2019-03-29T10:24:41.338Z,24.15
2019-03-29T10:27:11.932Z,9.50
2019-03-29T10:29:42.743Z,8.10
2019-03-29T10:32:13.339Z,6.78
2019-03-29T10:34:44.022Z,8.53
2019-03-29T10:37:14.737Z,13.30
2019-03-29T10:39:47.126Z,9.03
2019-03-29T10:42:18.738Z,10.05
2019-03-29T10:44:49.659Z,7.05
2019-03-29T10:47:20.445Z,9.45
2019-03-29T10:49:51.051Z,6.25
2019-03-29T10:52:21.561Z,12.78
2019-03-29T10:54:52.059Z,12.63
2019-03-29T10:57:22.633Z,12.95
2019-03-29T10:59:53.197Z,26.07
2019-03-29T11:02:25.473Z,58.38
2019-03-29T11:04:56.085Z,12.63
2019-03-29T11:07:26.777Z,14.83
2019-03-29T11:09:57.401Z,17.48
2019-03-29T11:12:28.155Z,14.25
2019-03-29T11:14:58.825Z,26.95
2019-03-29T11:17:29.532Z,12.03
2019-03-29T11:20:00.151Z,22.62
2019-03-29T11:22:30.946Z,14.30
2019-03-29T11:25:01.922Z,12.88
2019-03-29T11:27:32.668Z,10.82
2019-03-29T11:30:03.329Z,10.93
2019-03-29T11:32:34.091Z,9.00
2019-03-29T11:35:05.304Z,19.15
2019-03-29T11:37:35.924Z,17.00
2019-03-29T11:40:06.801Z,8.60
2019-03-29T11:42:37.480Z,12.73
2019-03-29T11:45:08.677Z,10.78
2019-03-29T11:47:39.267Z,9.53
2019-03-29T11:50:10.102Z,9.18
2019-03-29T11:52:40.833Z,11.22
2019-03-29T11:55:13.342Z,13.22
2019-03-29T11:57:44.088Z,15.13
2019-03-29T12:00:16.692Z,14.07
2019-03-29T12:02:47.363Z,16.52
2019-03-29T12:05:18.009Z,11.20
2019-03-29T12:07:48.650Z,10.95
2019-03-29T12:10:19.569Z,14.53
2019-03-29T12:12:50.333Z,15.13
2019-03-29T12:15:21.264Z,9.00
2019-03-29T12:17:51.916Z,7.80
2019-03-29T12:20:22.551Z,12.23
2019-03-29T12:22:53.208Z,24.65
2019-03-29T12:25:23.885Z,17.52
2019-03-29T12:27:54.600Z,14.87
2019-03-29T12:30:31.934Z,9.75
2019-03-29T12:32:57.764Z,14.30
2019-03-29T12:35:28.369Z,14.23
2019-03-29T12:37:59.053Z,9.05
2019-03-29T12:40:30.064Z,21.48
2019-03-29T12:43:01.559Z,11.43
2019-03-29T12:45:33.842Z,7.72
2019-03-29T12:48:16.197Z,15.72
2019-03-29T12:50:46.957Z,17.25
2019-03-29T12:53:17.684Z,17.27
2019-03-29T12:55:48.523Z,14.05
2019-03-29T12:58:19.119Z,24.63
2019-03-29T13:00:49.888Z,11.08
2019-03-29T13:03:20.690Z,9.00
2019-03-29T13:05:51.326Z,10.78
2019-03-29T13:08:21.895Z,10.05
2019-03-29T13:10:52.817Z,14.43
2019-03-29T13:13:23.565Z,10.53
2019-03-29T13:15:54.168Z,9.85
2019-03-29T13:18:26.046Z,12.73
2019-03-29T13:20:56.907Z,10.65
2019-03-29T13:23:29.595Z,12.60
2019-03-29T13:26:00.446Z,14.70
2019-03-29T13:28:31.109Z,12.28
2019-03-29T13:31:01.778Z,10.72
2019-03-29T13:33:33.526Z,11.08
2019-03-29T13:36:04.152Z,9.98
2019-03-29T13:38:36.259Z,11.60
2019-03-29T13:41:08.199Z,12.25
2019-03-29T13:43:38.712Z,22.27
2019-03-29T13:46:09.534Z,24.85
2019-03-29T13:48:41.280Z,16.93
2019-03-29T13:51:12.188Z,14.68
2019-03-29T13:53:42.780Z,16.52
2019-03-29T13:56:13.559Z,11.38
2019-03-29T13:58:44.250Z,25.00
2019-03-29T14:01:15.105Z,14.05
2019-03-29T14:03:45.771Z,15.80
2019-03-29T14:06:16.389Z,14.53
2019-03-29T14:08:47.145Z,15.25
2019-03-29T14:11:18.814Z,15.95
2019-03-29T14:13:49.461Z,15.32
2019-03-29T14:16:20.096Z,13.32
2019-03-29T14:18:50.776Z,15.70
2019-03-29T14:21:21.458Z,14.68
2019-03-29T14:23:52.036Z,16.42
2019-03-29T14:26:22.787Z,12.25
2019-03-29T14:28:53.358Z,16.90
2019-03-29T14:31:24.065Z,20.48
2019-03-29T14:33:54.904Z,18.02
2019-03-29T14:36:25.587Z,14.58
2019-03-29T14:38:56.251Z,22.58
2019-03-29T14:41:26.915Z,14.35
2019-03-29T14:43:57.532Z,15.88
2019-03-29T14:46:28.223Z,16.45
2019-03-29T14:48:58.795Z,10.75
2019-03-29T14:51:30.036Z,14.33
2019-03-29T14:54:02.175Z,14.73
2019-03-29T14:56:32.843Z,13.00
2019-03-29T14:59:03.676Z,16.10
2019-03-29T15:01:35.755Z,13.55
2019-03-29T15:04:06.436Z,13.53
2019-03-29T15:06:37.077Z,14.75
2019-03-29T15:09:08.838Z,32.78
2019-03-29T15:11:39.364Z,19.25
2019-03-29T15:14:10.194Z,17.10
2019-03-29T15:16:40.893Z,23.42
2019-03-29T15:19:12.621Z,23.62
2019-03-29T15:21:43.186Z,14.98
2019-03-29T15:24:13.947Z,13.68
2019-03-29T15:26:44.644Z,32.88
2019-03-29T15:29:15.210Z,14.87
2019-03-29T15:31:45.931Z,30.30
2019-03-29T15:34:16.482Z,30.35
2019-03-29T15:36:47.545Z,17.45
2019-03-29T15:39:18.246Z,24.72
2019-03-29T15:41:48.856Z,19.98
2019-03-29T15:44:20.115Z,19.35
2019-03-29T15:46:50.732Z,14.58
2019-03-29T15:49:21.466Z,15.20
2019-03-29T15:51:52.326Z,20.90
2019-03-29T15:54:23.037Z,24.05
2019-03-29T15:56:53.807Z,19.50
2019-03-29T15:59:24.554Z,16.35
2019-03-29T16:01:55.445Z,15.23
2019-03-29T16:04:26.113Z,16.48
2019-03-29T16:06:56.842Z,14.85
2019-03-29T16:09:29.076Z,28.12
2019-03-29T16:12:00.038Z,17.25
2019-03-29T16:14:30.659Z,22.77
2019-03-29T16:17:02.385Z,21.30
2019-03-29T16:19:33.238Z,20.35
2019-03-29T16:22:06.002Z,31.82
2019-03-29T16:24:36.504Z,27.17
2019-03-29T16:27:07.145Z,19.32
2019-03-29T16:29:37.863Z,23.67
2019-03-29T16:32:08.943Z,25.88
2019-03-29T16:34:39.775Z,30.23
2019-03-29T16:37:10.450Z,17.02
2019-03-29T16:39:42.286Z,18.00
2019-03-29T16:42:13.324Z,17.92
2019-03-29T16:44:45.055Z,23.22
2019-03-29T16:47:16.457Z,22.32
2019-03-29T16:49:47.783Z,20.72
2019-03-29T16:52:19.586Z,30.85
2019-03-29T16:54:50.710Z,30.85
2019-03-29T16:57:21.357Z,32.73
2019-03-29T16:59:51.946Z,37.48
2019-03-29T17:02:22.809Z,23.15
2019-03-29T17:04:53.803Z,18.27
2019-03-29T17:07:24.627Z,18.95
2019-03-29T17:09:55.410Z,16.15
2019-03-29T17:12:26.078Z,22.37
2019-03-29T17:14:57.898Z,24.52
2019-03-29T17:17:28.587Z,23.30
2019-03-29T17:19:59.350Z,20.85
2019-03-29T17:22:30.149Z,22.55
2019-03-29T17:25:00.719Z,29.72
2019-03-29T17:27:31.411Z,17.12
2019-03-29T17:30:02.380Z,17.95
2019-03-29T17:32:33.625Z,19.70
2019-03-29T17:35:04.539Z,16.85
2019-03-29T17:37:56.990Z,13.55
2019-03-29T17:40:28.883Z,17.60
2019-03-29T17:42:59.489Z,19.25
2019-03-29T17:45:30.214Z,23.75
2019-03-29T17:48:00.917Z,14.95
2019-03-29T17:50:32.069Z,19.12
2019-03-29T17:53:02.910Z,15.83
2019-03-29T17:55:34.541Z,22.17
2019-03-29T17:58:05.550Z,14.28
2019-03-29T18:00:36.387Z,17.48
2019-03-29T18:03:08.261Z,16.25
2019-03-29T18:05:39.173Z,14.60
2019-03-29T18:08:09.871Z,16.45
2019-03-29T18:10:40.508Z,19.80
2019-03-29T18:13:11.196Z,17.00
2019-03-29T18:15:41.777Z,16.70
2019-03-29T18:18:13.257Z,14.85
2019-03-29T18:20:44.346Z,17.57
2019-03-29T18:23:15.095Z,22.37
2019-03-29T18:25:45.868Z,17.20
2019-03-29T18:28:17.623Z,24.27
2019-03-29T18:30:48.354Z,22.67
2019-03-29T18:33:20.075Z,16.75
2019-03-29T18:35:56.049Z,18.85
2019-03-29T18:38:29.854Z,18.52
2019-03-29T18:41:00.666Z,20.02
2019-03-29T18:43:32.684Z,21.15
2019-03-29T18:46:03.455Z,20.30
2019-03-29T18:48:34.126Z,21.20
2019-03-29T18:51:04.865Z,21.65
2019-03-29T18:53:37.336Z,17.92
2019-03-29T18:56:08.138Z,17.12
2019-03-29T18:58:39.044Z,30.50
2019-03-29T19:01:09.880Z,23.12
2019-03-29T19:03:40.558Z,15.15
2019-03-29T19:06:11.527Z,16.15
2019-03-29T19:08:44.038Z,21.52
2019-03-29T19:11:15.365Z,19.82
2019-03-29T19:13:46.321Z,29.02
2019-03-29T19:16:17.471Z,24.70
2019-03-29T19:18:49.663Z,23.45
2019-03-29T19:21:21.250Z,21.45
2019-03-29T19:24:04.760Z,22.82
2019-03-29T19:26:35.601Z,16.65
2019-03-29T19:29:06.354Z,21.30
2019-03-29T19:31:37.441Z,20.08
2019-03-29T19:34:09.253Z,16.97
2019-03-29T19:36:43.073Z,20.48
2019-03-29T19:39:13.752Z,20.25
2019-03-29T19:41:45.776Z,19.65
2019-03-29T19:44:16.469Z,27.67
2019-03-29T19:46:47.273Z,23.10
2019-03-29T19:49:18.221Z,17.70
2019-03-29T19:52:03.282Z,23.75
2019-03-29T19:54:35.729Z,18.70
2019-03-29T19:57:06.648Z,17.85
2019-03-29T19:59:37.411Z,28.77
2019-03-29T20:02:09.978Z,17.95
2019-03-29T20:04:40.926Z,16.80
2019-03-29T20:07:11.717Z,17.95
2019-03-29T20:09:42.413Z,19.25
2019-03-29T20:12:13.178Z,20.65
2019-03-29T20:14:44.053Z,20.62
2019-03-29T20:17:26.957Z,21.97
2019-03-29T20:19:47.342Z,26.80
2019-03-29T20:22:24.614Z,23.33
2019-03-29T20:25:00.279Z,23.57
2019-03-29T20:27:32.686Z,19.62
2019-03-29T20:30:05.958Z,20.48
2019-03-29T20:32:36.775Z,22.13
2019-03-29T20:35:08.726Z,20.40
2019-03-29T20:37:40.223Z,21.02
2019-03-29T20:40:11.365Z,22.98
2019-03-29T20:42:46.186Z,19.37
2019-03-29T20:45:23.084Z,17.32
2019-03-29T20:47:54.136Z,22.93
2019-03-29T20:50:27.312Z,21.30
2019-03-29T20:52:58.194Z,23.18
2019-03-29T20:55:29.446Z,23.62
2019-03-29T20:58:12.104Z,20.40
2019-03-29T21:00:45.106Z,22.22
2019-03-29T21:03:19.045Z,23.75
2019-03-29T21:05:49.851Z,23.12
2019-03-29T21:08:20.455Z,22.73
2019-03-29T21:10:56.330Z,30.88
2019-03-29T21:13:23.864Z,23.22
2019-03-29T21:15:58.504Z,24.67
2019-03-29T21:18:31.154Z,22.35
2019-03-29T21:21:02.373Z,23.75
2019-03-29T21:23:33.607Z,23.45
2019-03-29T21:26:07.590Z,24.72
2019-03-29T21:28:40.322Z,21.30
2019-03-29T21:31:11.523Z,24.72
2019-03-29T21:33:42.374Z,26.90
2019-03-29T21:36:13.237Z,31.52
2019-03-29T21:38:47.868Z,18.77
2019-03-29T21:41:23.694Z,24.77
2019-03-29T21:43:54.564Z,20.27
2019-03-29T21:46:31.079Z,19.85
2019-03-29T21:49:06.873Z,21.37
2019-03-29T21:51:39.740Z,23.40
2019-03-29T21:54:16.930Z,23.05
2019-03-29T21:56:48.798Z,27.42
2019-03-29T21:59:19.673Z,21.05
2019-03-29T22:01:50.382Z,23.32
2019-03-29T22:04:21.307Z,29.67
2019-03-29T22:06:54.511Z,24.90
2019-03-29T22:09:36.396Z,23.83
2019-03-29T22:11:57.786Z,23.75
2019-03-29T22:14:28.552Z,19.92
2019-03-29T22:16:59.174Z,25.32
2019-03-29T22:19:29.832Z,23.10
2019-03-29T22:22:00.606Z,21.60
2019-03-29T22:24:31.286Z,23.12
2019-03-29T22:27:01.886Z,26.52
2019-03-29T22:29:32.433Z,27.30
2019-03-29T22:32:03.027Z,24.00
2019-03-29T22:34:33.672Z,25.45
2019-03-29T22:37:04.385Z,19.45
2019-03-29T22:39:34.968Z,21.27
2019-03-29T22:42:06.163Z,17.92
2019-03-29T22:44:37.222Z,27.13
2019-03-29T22:47:08.072Z,26.85
2019-03-29T22:49:38.683Z,25.82
2019-03-29T22:52:09.135Z,26.95
2019-03-29T22:54:39.728Z,21.42
2019-03-29T22:57:10.300Z,28.25
2019-03-29T22:59:40.880Z,25.37
2019-03-29T23:02:14.234Z,21.07
2019-03-29T23:04:44.911Z,23.47
2019-03-29T23:07:15.533Z,22.58
2019-03-29T23:09:46.200Z,26.77
2019-03-29T23:12:16.797Z,26.65
2019-03-29T23:14:48.953Z,27.35
2019-03-29T23:17:19.631Z,24.67
2019-03-29T23:19:50.302Z,21.82
2019-03-29T23:22:20.993Z,22.77
2019-03-29T23:24:51.502Z,21.02
2019-03-29T23:27:22.252Z,26.48
2019-03-29T23:29:52.942Z,21.50
2019-03-29T23:32:23.604Z,24.92
2019-03-29T23:34:54.209Z,21.30
2019-03-29T23:37:25.029Z,24.27
2019-03-29T23:39:55.786Z,22.87
2019-03-29T23:42:27.999Z,24.85
2019-03-29T23:44:58.800Z,25.55
2019-03-29T23:47:29.771Z,31.33
2019-03-29T23:50:00.542Z,21.77
2019-03-29T23:52:31.161Z,20.25
2019-03-29T23:55:01.777Z,23.27
2019-03-29T23:57:32.402Z,24.92
